Time;durP1;ratioP1;P1;durP2;ratioP2;P2;SDS_P1;SDS_P2;PMS_P1;PMS_P2;Temp;Humidity;BMP_temperature;BMP_pressure;BME280_temperature;BME280_humidity;BME280_pressure;Samples;Min_cycle;Max_cycle;Signal;HPM_P1;HPM_P2
2023/10/05 00:01:27;;;;;;;17.13;5.88;;;16.60;55.10;;;;;;5038317;28;20525;-45
2023/10/05 00:03:55;;;;;;;18.35;5.93;;;16.70;55.10;;;;;;5037549;28;20068;-49
2023/10/05 00:06:27;;;;;;;15.57;5.63;;;16.60;55.20;;;;;;5039032;28;20500;-50
2023/10/05 00:08:56;;;;;;;17.25;5.72;;;16.70;55.20;;;;;;5043795;28;20056;-47
2023/10/05 00:11:29;;;;;;;20.08;5.88;;;16.70;55.20;;;;;;5042371;28;20045;-48
2023/10/05 00:13:58;;;;;;;20.42;5.65;;;16.70;55.20;;;;;;5041806;28;20088;-46
2023/10/05 00:16:36;;;;;;;20.55;5.55;;;16.70;55.20;;;;;;5042386;28;20059;-43
2023/10/05 00:19:05;;;;;;;17.98;5.60;;;16.70;55.20;;;;;;5041180;28;20056;-45
2023/10/05 00:21:35;;;;;;;13.80;5.60;;;16.70;55.20;;;;;;5040381;28;20056;-45
2023/10/05 00:24:06;;;;;;;15.27;5.55;;;16.70;55.20;;;;;;5042499;28;20061;-47
2023/10/05 00:26:34;;;;;;;14.20;5.65;;;16.70;55.20;;;;;;5042818;28;20060;-46
2023/10/05 00:29:15;;;;;;;14.05;5.50;;;16.70;55.20;;;;;;5041749;28;20064;-47
2023/10/05 00:31:43;;;;;;;14.57;5.18;;;16.70;55.30;;;;;;5038174;28;20059;-49
2023/10/05 00:34:15;;;;;;;15.25;5.90;;;16.70;55.30;;;;;;5040992;28;20049;-51
2023/10/05 00:36:45;;;;;;;22.92;6.22;;;16.70;55.30;;;;;;5041040;28;20397;-49
2023/10/05 00:39:16;;;;;;;15.95;5.40;;;16.60;55.20;;;;;;5041968;28;20386;-51
2023/10/05 00:41:43;;;;;;;16.63;5.40;;;16.60;55.20;;;;;;5041082;28;20064;-52
2023/10/05 00:44:12;;;;;;;17.85;6.20;;;16.60;55.20;;;;;;5041188;28;20053;-53
2023/10/05 00:46:39;;;;;;;14.77;6.07;;;16.60;55.20;;;;;;5040137;28;20053;-50
2023/10/05 00:49:16;;;;;;;19.13;6.30;;;16.50;55.30;;;;;;5042102;28;20056;-50
2023/10/05 00:51:54;;;;;;;17.15;5.78;;;16.50;55.30;;;;;;5039221;28;20053;-50
2023/10/05 00:54:30;;;;;;;19.63;5.75;;;16.50;55.30;;;;;;5041227;28;20056;-49
2023/10/05 00:56:57;;;;;;;17.48;4.80;;;16.50;55.40;;;;;;5041927;28;20501;-49
2023/10/05 00:59:25;;;;;;;18.13;5.60;;;16.50;55.40;;;;;;5039896;28;20049;-49
2023/10/05 01:02:04;;;;;;;14.95;5.57;;;16.40;55.50;;;;;;5041492;28;20060;-46
2023/10/05 01:04:52;;;;;;;14.50;5.68;;;16.40;55.60;;;;;;5040163;28;20401;-50
2023/10/05 01:07:28;;;;;;;16.80;5.80;;;16.40;55.60;;;;;;5041767;28;20072;-51
2023/10/05 01:12:43;;;;;;;15.25;5.65;;;16.40;55.60;;;;;;5038638;28;20053;-50
2023/10/05 01:15:18;;;;;;;16.15;5.25;;;16.40;55.60;;;;;;5040322;28;20049;-48
2023/10/05 01:17:50;;;;;;;17.73;5.05;;;16.40;55.70;;;;;;5039449;28;20049;-48
2023/10/05 01:20:26;;;;;;;13.77;5.13;;;16.40;55.70;;;;;;5040211;28;20057;-47
2023/10/05 01:22:57;;;;;;;16.83;6.15;;;16.40;55.70;;;;;;5039707;28;20425;-50
2023/10/05 01:25:27;;;;;;;16.85;5.88;;;16.40;55.80;;;;;;5040894;28;20064;-46
2023/10/05 01:27:55;;;;;;;21.05;5.50;;;16.30;55.80;;;;;;5041428;28;20054;-50
2023/10/05 01:30:23;;;;;;;16.45;5.45;;;16.30;55.80;;;;;;5040287;28;20556;-49
2023/10/05 01:32:50;;;;;;;17.63;5.85;;;16.40;55.80;;;;;;5040415;28;20064;-51
2023/10/05 01:35:19;;;;;;;21.42;5.65;;;16.30;55.80;;;;;;5040097;28;20397;-51
2023/10/05 01:37:50;;;;;;;22.45;6.07;;;16.30;55.80;;;;;;5040740;28;20048;-49
2023/10/05 01:40:23;;;;;;;16.02;4.80;;;16.30;55.80;;;;;;5040428;28;20418;-47
2023/10/05 01:42:52;;;;;;;18.80;5.43;;;16.30;55.80;;;;;;5040663;28;20501;-47
2023/10/05 01:45:24;;;;;;;15.55;4.97;;;16.30;55.80;;;;;;5040740;28;20076;-46
2023/10/05 01:47:52;;;;;;;12.90;5.10;;;16.30;55.90;;;;;;5041983;28;20053;-46
2023/10/05 01:50:22;;;;;;;18.17;5.20;;;16.30;55.90;;;;;;5038899;28;20068;-48
2023/10/05 01:52:56;;;;;;;15.88;5.22;;;16.30;55.90;;;;;;5039117;28;20052;-43
2023/10/05 01:55:24;;;;;;;19.80;6.07;;;16.30;55.90;;;;;;5039669;28;20048;-46
2023/10/05 01:57:54;;;;;;;13.82;4.78;;;16.30;55.90;;;;;;5039692;28;20056;-46
2023/10/05 02:00:23;;;;;;;14.27;4.97;;;16.30;55.90;;;;;;5039393;28;20061;-43
2023/10/05 02:02:52;;;;;;;12.85;4.35;;;16.30;55.90;;;;;;5040908;28;20053;-46
2023/10/05 02:05:20;;;;;;;17.48;5.05;;;16.30;55.90;;;;;;5039646;28;20142;-45
2023/10/05 02:07:49;;;;;;;21.17;5.10;;;16.20;55.80;;;;;;5040087;28;20053;-46
2023/10/05 02:10:19;;;;;;;14.50;5.10;;;16.30;56.30;;;;;;5038410;28;20493;-45
2023/10/05 02:12:53;;;;;;;16.48;4.93;;;16.30;55.80;;;;;;5039143;28;20056;-46
2023/10/05 02:15:28;;;;;;;18.73;4.88;;;16.20;55.80;;;;;;5038293;28;20370;-42
2023/10/05 02:17:58;;;;;;;15.52;4.50;;;16.20;55.80;;;;;;5039612;28;20053;-45
2023/10/05 02:20:41;;;;;;;12.48;4.40;;;16.20;55.80;;;;;;5037788;28;20071;-45
2023/10/05 02:23:24;;;;;;;11.77;4.05;;;16.20;55.80;;;;;;5038692;28;20063;-51
2023/10/05 02:26:00;;;;;;;15.32;4.28;;;16.20;55.70;;;;;;5040104;28;20378;-45
2023/10/05 02:28:27;;;;;;;10.55;3.50;;;16.20;55.70;;;;;;5038838;28;20053;-45
2023/10/05 02:31:00;;;;;;;14.05;4.30;;;16.20;55.70;;;;;;5038798;28;20052;-44
2023/10/05 02:33:31;;;;;;;16.08;4.93;;;16.30;55.70;;;;;;5036706;28;20061;-47
2023/10/05 02:36:09;;;;;;;14.02;4.20;;;16.30;55.70;;;;;;5039382;28;20056;-47
2023/10/05 02:38:38;;;;;;;17.27;4.60;;;16.30;55.70;;;;;;5037826;28;20440;-44
2023/10/05 02:41:08;;;;;;;9.65;3.95;;;16.30;55.70;;;;;;5037545;28;20053;-47
2023/10/05 02:43:39;;;;;;;16.40;4.32;;;16.30;55.70;;;;;;5039488;28;20072;-45
2023/10/05 02:46:12;;;;;;;12.35;3.83;;;16.30;55.70;;;;;;5038167;28;20049;-49
2023/10/05 02:48:41;;;;;;;12.25;4.10;;;16.30;55.70;;;;;;5039324;28;20060;-48
2023/10/05 02:51:13;;;;;;;12.02;4.03;;;16.30;55.60;;;;;;5040732;28;20057;-45
2023/10/05 02:53:46;;;;;;;12.93;4.00;;;16.30;55.60;;;;;;5041253;28;20429;-49
2023/10/05 02:56:22;;;;;;;11.50;3.67;;;16.30;55.60;;;;;;5037704;28;21644;-45
2023/10/05 02:58:52;;;;;;;12.32;4.38;;;16.30;55.50;;;;;;5038134;28;20123;-47
2023/10/05 03:01:22;;;;;;;14.07;4.47;;;16.30;55.50;;;;;;5037560;28;20072;-43
2023/10/05 03:03:51;;;;;;;10.30;3.88;;;16.30;55.40;;;;;;5037386;28;20057;-46
2023/10/05 03:06:21;;;;;;;14.35;4.38;;;16.40;55.50;;;;;;5038305;28;20529;-50
2023/10/05 03:08:53;;;;;;;15.88;4.43;;;16.40;55.50;;;;;;5038996;28;20504;-48
2023/10/05 03:11:21;;;;;;;16.50;4.43;;;16.40;55.60;;;;;;5036929;28;20048;-48
2023/10/05 03:13:50;;;;;;;11.75;4.10;;;16.40;55.60;;;;;;5038913;28;20048;-48
2023/10/05 03:16:21;;;;;;;9.77;4.05;;;16.40;55.60;;;;;;5037799;28;20045;-48
2023/10/05 03:18:50;;;;;;;14.60;4.45;;;16.30;55.60;;;;;;5038924;28;20057;-49
2023/10/05 03:21:18;;;;;;;15.52;4.47;;;16.40;55.70;;;;;;5035579;28;20064;-48
2023/10/05 03:23:46;;;;;;;13.25;4.45;;;16.40;55.70;;;;;;5036088;28;20049;-46
2023/10/05 03:26:24;;;;;;;14.43;4.80;;;16.30;55.70;;;;;;5039794;28;20060;-45
2023/10/05 03:28:51;;;;;;;15.00;4.28;;;16.30;55.70;;;;;;5037135;28;20049;-44
2023/10/05 03:31:24;;;;;;;15.88;4.53;;;16.30;55.70;;;;;;5036427;28;20497;-47
2023/10/05 03:33:54;;;;;;;11.20;4.20;;;16.30;55.70;;;;;;5038458;28;20053;-47
2023/10/05 03:36:21;;;;;;;15.70;4.72;;;16.30;55.70;;;;;;5038255;28;20412;-48
2023/10/05 03:38:56;;;;;;;13.50;4.45;;;16.30;55.70;;;;;;5037267;28;20052;-47
2023/10/05 03:41:26;;;;;;;11.60;3.97;;;16.30;55.80;;;;;;5039900;28;20052;-49
2023/10/05 03:43:55;;;;;;;14.27;4.72;;;16.20;55.80;;;;;;5028307;28;20056;-46
2023/10/05 03:46:24;;;;;;;10.88;4.30;;;16.20;55.90;;;;;;5035391;28;20040;-51
2023/10/05 03:48:59;;;;;;;13.45;4.03;;;16.20;56.00;;;;;;5037389;28;20049;-45
2023/10/05 03:51:28;;;;;;;14.48;4.20;;;16.20;55.90;;;;;;5034417;28;20061;-48
2023/10/05 03:53:55;;;;;;;12.98;4.45;;;16.20;56.00;;;;;;5037615;28;20076;-46
2023/10/05 03:56:23;;;;;;;15.85;4.38;;;16.20;56.50;;;;;;5038047;28;20068;-49
2023/10/05 03:58:52;;;;;;;11.98;4.15;;;16.20;56.00;;;;;;5037630;28;20061;-47
2023/10/05 04:01:21;;;;;;;12.27;3.72;;;16.10;56.00;;;;;;5033867;28;20049;-46
2023/10/05 04:03:50;;;;;;;12.75;3.75;;;16.10;56.00;;;;;;5049749;22;20486;-88
2023/10/05 04:06:20;;;;;;;15.07;3.90;;;16.10;56.10;;;;;;5048529;23;20056;-49
2023/10/05 04:08:49;;;;;;;10.35;3.28;;;16.10;56.10;;;;;;5022207;28;20049;-47
2023/10/05 04:11:18;;;;;;;9.93;3.28;;;16.10;56.10;;;;;;5023712;28;20444;-50
2023/10/05 04:13:46;;;;;;;10.80;3.60;;;16.10;56.10;;;;;;5021135;28;20060;-50
2023/10/05 04:16:21;;;;;;;10.43;3.88;;;16.10;56.10;;;;;;5021931;28;20059;-50
2023/10/05 04:18:50;;;;;;;15.55;4.80;;;16.00;56.10;;;;;;5021151;28;20096;-51
2023/10/05 04:21:22;;;;;;;8.95;3.60;;;16.00;56.10;;;;;;5023355;28;20045;-50
2023/10/05 04:23:50;;;;;;;10.00;3.08;;;16.00;56.10;;;;;;5024599;28;20056;-50
2023/10/05 04:26:21;;;;;;;10.63;3.65;;;16.00;56.10;;;;;;5022548;28;20046;-48
2023/10/05 04:28:54;;;;;;;9.82;3.60;;;16.00;56.10;;;;;;5022968;28;20059;-51
2023/10/05 04:31:26;;;;;;;12.80;4.30;;;16.00;56.10;;;;;;5024307;28;20057;-48
2023/10/05 04:33:55;;;;;;;9.38;2.95;;;16.00;56.10;;;;;;5020483;28;20057;-52
2023/10/05 04:36:25;;;;;;;9.10;3.33;;;16.00;56.10;;;;;;5022988;28;20642;-50
2023/10/05 04:38:54;;;;;;;13.52;3.75;;;15.90;56.10;;;;;;5021790;28;20064;-49
2023/10/05 04:41:28;;;;;;;13.48;3.95;;;15.90;56.00;;;;;;5027136;28;20058;-49
2023/10/05 04:43:56;;;;;;;9.43;3.53;;;15.90;56.00;;;;;;5022546;28;20068;-47
2023/10/05 04:46:23;;;;;;;8.13;3.17;;;15.90;56.00;;;;;;5018662;28;20049;-48
2023/10/05 04:49:07;;;;;;;10.77;3.25;;;15.90;56.00;;;;;;5023276;28;20397;-48
2023/10/05 04:51:39;;;;;;;10.70;4.05;;;15.90;55.90;;;;;;5021967;28;20053;-44
2023/10/05 04:54:10;;;;;;;12.15;3.30;;;16.00;56.00;;;;;;5028429;28;20057;-49
2023/10/05 04:56:53;;;;;;;10.30;3.40;;;15.90;55.90;;;;;;5026593;28;20061;-50
2023/10/05 04:59:48;;;;;;;13.75;3.60;;;16.00;55.90;;;;;;5026997;28;20045;-49
2023/10/05 05:02:21;;;;;;;8.63;3.22;;;16.00;55.80;;;;;;5025107;28;20050;-49
2023/10/05 05:05:21;;;;;;;9.27;2.75;;;16.00;55.80;;;;;;5026237;28;20400;-45
2023/10/05 05:07:52;;;;;;;11.95;2.90;;;15.90;55.70;;;;;;5019368;28;20064;-50
2023/10/05 05:10:21;;;;;;;15.05;3.15;;;16.00;55.70;;;;;;5021841;28;20053;-51
2023/10/05 05:12:49;;;;;;;10.85;3.03;;;15.90;55.60;;;;;;5018544;28;20544;-47
2023/10/05 05:15:17;;;;;;;8.45;2.83;;;15.90;55.60;;;;;;5021757;28;20073;-50
2023/10/05 05:17:45;;;;;;;9.32;3.42;;;15.90;55.60;;;;;;5021039;28;20057;-50
2023/10/05 05:20:15;;;;;;;8.88;2.90;;;15.90;55.70;;;;;;5019008;28;20504;-47
2023/10/05 05:22:46;;;;;;;7.90;2.90;;;15.90;55.70;;;;;;5017502;28;20042;-46
2023/10/05 05:25:17;;;;;;;9.02;3.13;;;15.90;55.70;;;;;;5020964;28;20058;-50
2023/10/05 05:27:45;;;;;;;10.00;2.65;;;15.90;55.70;;;;;;5019688;28;20061;-49
2023/10/05 05:30:24;;;;;;;12.57;2.83;;;15.90;55.70;;;;;;5020536;28;20057;-48
2023/10/05 05:32:54;;;;;;;11.95;3.00;;;15.90;55.80;;;;;;5019553;28;21108;-52
2023/10/05 05:35:21;;;;;;;16.90;3.13;;;15.90;55.80;;;;;;5020826;28;20065;-47
2023/10/05 05:37:48;;;;;;;13.40;3.22;;;15.90;55.80;;;;;;5019010;28;20485;-48
2023/10/05 05:40:18;;;;;;;11.82;3.28;;;15.80;55.80;;;;;;5020441;28;20050;-51
2023/10/05 05:42:45;;;;;;;10.15;2.85;;;15.80;55.90;;;;;;5019615;28;20060;-47
2023/10/05 05:45:16;;;;;;;9.05;3.03;;;15.80;56.00;;;;;;5020707;28;20058;-49
2023/10/05 05:47:45;;;;;;;8.27;2.83;;;15.80;56.10;;;;;;5020997;28;20049;-52
2023/10/05 05:50:17;;;;;;;10.40;2.78;;;15.80;56.30;;;;;;5018361;28;20058;-46
2023/10/05 05:52:46;;;;;;;9.65;2.85;;;15.80;56.40;;;;;;5018153;28;20623;-47
2023/10/05 05:55:14;;;;;;;8.82;3.38;;;15.80;56.50;;;;;;5018514;28;20547;-51
2023/10/05 05:57:42;;;;;;;8.13;3.17;;;15.80;56.50;;;;;;5015815;28;20049;-49
2023/10/05 06:00:17;;;;;;;12.55;3.83;;;15.80;56.60;;;;;;5014386;28;20061;-50
2023/10/05 06:02:46;;;;;;;11.00;3.25;;;15.80;56.60;;;;;;5018301;28;20417;-48
2023/10/05 06:05:14;;;;;;;11.77;3.40;;;15.80;56.60;;;;;;5020037;28;20057;-49
2023/10/05 06:07:43;;;;;;;14.52;5.05;;;15.80;56.70;;;;;;5022356;28;20041;-46
2023/10/05 06:10:13;;;;;;;11.38;3.35;;;15.80;56.70;;;;;;5023047;28;20053;-50
2023/10/05 06:12:42;;;;;;;11.98;3.33;;;15.80;56.60;;;;;;5023290;28;20049;-50
2023/10/05 06:15:13;;;;;;;11.05;3.55;;;15.80;56.60;;;;;;5022186;28;20057;-49
2023/10/05 06:17:41;;;;;;;11.43;3.50;;;15.80;56.60;;;;;;5020273;28;20046;-48
2023/10/05 06:20:13;;;;;;;9.80;3.60;;;15.80;56.70;;;;;;5022261;28;20064;-51
2023/10/05 06:22:41;;;;;;;15.13;4.57;;;15.80;56.80;;;;;;5021857;28;20053;-48
2023/10/05 06:25:09;;;;;;;12.80;3.55;;;15.90;56.90;;;;;;5023300;28;20053;-45
2023/10/05 06:27:37;;;;;;;16.67;3.85;;;15.80;56.80;;;;;;5022591;28;20527;-44
2023/10/05 06:30:09;;;;;;;12.68;3.67;;;15.90;56.90;;;;;;5021662;28;20489;-48
2023/10/05 06:32:36;;;;;;;9.63;4.40;;;15.80;56.90;;;;;;5021487;28;20057;-45
2023/10/05 06:35:07;;;;;;;16.17;4.20;;;15.90;57.00;;;;;;5022119;28;20053;-46
2023/10/05 06:37:35;;;;;;;9.93;3.17;;;15.90;57.00;;;;;;5020934;28;20052;-47
2023/10/05 06:40:07;;;;;;;11.30;3.78;;;15.90;57.00;;;;;;5022097;28;20060;-47
2023/10/05 06:42:36;;;;;;;;;;;15.90;57.10;;;;;;5022558;28;20072;-45
2023/10/05 06:45:07;;;;;;;14.57;3.95;;;16.00;57.10;;;;;;5022821;28;19932;-46
2023/10/05 06:47:39;;;;;;;7.50;2.53;;;16.00;57.00;;;;;;5021403;28;20068;-46
2023/10/05 06:50:09;;;;;;;10.55;2.97;;;16.00;57.10;;;;;;5021806;28;21583;-46
2023/10/05 06:52:40;;;;;;;14.27;3.65;;;16.10;57.30;;;;;;5022612;28;20065;-46
2023/10/05 06:55:09;;;;;;;10.52;3.50;;;16.10;57.40;;;;;;5020540;28;20049;-46
2023/10/05 06:57:36;;;;;;;11.35;2.65;;;16.10;57.50;;;;;;5020708;28;20061;-45
2023/10/05 07:00:11;;;;;;;8.68;2.50;;;16.10;57.50;;;;;;5014074;28;20129;-50
2023/10/05 07:02:40;;;;;;;9.90;3.30;;;16.10;57.80;;;;;;5016127;28;20500;-46
2023/10/05 07:05:09;;;;;;;10.55;2.95;;;16.20;57.40;;;;;;5015856;28;20053;-49
2023/10/05 07:07:36;;;;;;;12.32;2.70;;;16.20;57.40;;;;;;5015059;28;20053;-47
2023/10/05 07:10:04;;;;;;;9.13;2.67;;;16.20;57.20;;;;;;5013480;28;20496;-47
2023/10/05 07:12:35;;;;;;;9.73;3.03;;;16.30;57.30;;;;;;5018736;28;20064;-46
2023/10/05 07:15:02;;;;;;;10.15;2.97;;;16.30;57.30;;;;;;5016664;28;20057;-44
2023/10/05 07:17:29;;;;;;;8.75;2.70;;;16.40;57.30;;;;;;5018405;28;20060;-47
2023/10/05 07:19:58;;;;;;;8.82;2.70;;;16.40;57.20;;;;;;5015896;28;20064;-45
2023/10/05 07:22:26;;;;;;;7.75;2.60;;;16.40;57.10;;;;;;5014878;28;20061;-48
2023/10/05 07:24:53;;;;;;;12.93;2.75;;;16.50;57.10;;;;;;5020319;28;20057;-44
2023/10/05 07:27:21;;;;;;;11.52;2.53;;;16.50;57.00;;;;;;5016826;28;20092;-43
2023/10/05 07:29:48;;;;;;;6.13;2.20;;;16.50;57.00;;;;;;5017037;28;20876;-44
2023/10/05 07:32:16;;;;;;;12.98;2.60;;;16.60;57.00;;;;;;5016122;28;20080;-47
2023/10/05 07:34:44;;;;;;;8.25;2.50;;;16.60;56.90;;;;;;5019406;28;20501;-46
2023/10/05 07:37:13;;;;;;;12.30;3.42;;;16.60;56.80;;;;;;5020078;28;20057;-50
2023/10/05 07:39:41;;;;;;;9.82;2.60;;;16.70;56.90;;;;;;5019769;28;20057;-47
2023/10/05 07:42:09;;;;;;;11.07;2.35;;;16.70;56.80;;;;;;5018592;28;20053;-47
2023/10/05 07:44:38;;;;;;;8.05;2.45;;;16.80;56.80;;;;;;5019789;28;20057;-51
2023/10/05 07:47:05;;;;;;;12.57;2.97;;;16.80;56.80;;;;;;5019766;28;20046;-48
2023/10/05 07:49:34;;;;;;;8.90;2.67;;;16.80;56.70;;;;;;5017415;28;20057;-45
2023/10/05 07:52:03;;;;;;;7.90;2.80;;;16.80;56.60;;;;;;5018376;28;20489;-47
2023/10/05 07:54:34;;;;;;;10.70;2.83;;;16.90;56.60;;;;;;5017920;28;20054;-45
2023/10/05 07:57:02;;;;;;;12.10;2.90;;;16.90;56.60;;;;;;5019029;28;20064;-49
2023/10/05 07:59:29;;;;;;;7.55;2.33;;;17.00;56.50;;;;;;5018674;28;20064;-49
2023/10/05 08:01:56;;;;;;;14.82;3.30;;;17.00;56.40;;;;;;5018745;28;20057;-48
2023/10/05 08:04:23;;;;;;;13.07;2.78;;;17.00;56.40;;;;;;5016545;28;20049;-45
2023/10/05 08:06:52;;;;;;;9.32;2.50;;;17.00;56.40;;;;;;5016810;28;20056;-48
2023/10/05 08:09:20;;;;;;;8.75;2.70;;;17.10;56.40;;;;;;5018959;28;20045;-49
2023/10/05 08:11:50;;;;;;;8.15;2.40;;;17.10;56.40;;;;;;5017954;28;20049;-50
2023/10/05 08:14:17;;;;;;;11.43;2.60;;;17.10;56.40;;;;;;5015286;28;20492;-51
2023/10/05 08:16:45;;;;;;;12.70;2.58;;;17.20;56.40;;;;;;5017736;28;20057;-46
2023/10/05 08:19:12;;;;;;;9.90;2.47;;;17.20;56.40;;;;;;5018330;28;20056;-51
2023/10/05 08:21:41;;;;;;;11.90;2.42;;;17.30;56.50;;;;;;5018715;28;20064;-49
2023/10/05 08:24:08;;;;;;;10.15;2.65;;;17.30;56.40;;;;;;5018681;28;20049;-48
2023/10/05 08:26:39;;;;;;;14.85;2.75;;;17.40;56.40;;;;;;5020477;28;20421;-47
2023/10/05 08:29:09;;;;;;;8.00;3.10;;;17.40;56.30;;;;;;5021284;28;20524;-51
2023/10/05 08:31:37;;;;;;;9.32;2.55;;;17.50;56.20;;;;;;5014640;28;20639;-47
2023/10/05 08:34:06;;;;;;;12.50;3.10;;;17.50;56.20;;;;;;5020617;28;20057;-50
2023/10/05 08:36:34;;;;;;;11.60;2.47;;;17.60;56.10;;;;;;5023039;28;20065;-46
2023/10/05 08:39:01;;;;;;;11.23;2.50;;;17.60;56.10;;;;;;5016664;28;20060;-49
2023/10/05 08:41:34;;;;;;;7.88;2.60;;;17.60;56.10;;;;;;5018937;28;20061;-49
2023/10/05 08:44:06;;;;;;;9.25;2.70;;;17.60;56.00;;;;;;5018960;28;20547;-47
2023/10/05 08:46:41;;;;;;;11.30;3.47;;;17.70;56.10;;;;;;5019412;28;20068;-48
2023/10/05 08:49:10;;;;;;;9.73;3.10;;;17.70;56.00;;;;;;5017459;28;20056;-44
2023/10/05 08:51:39;;;;;;;9.93;2.70;;;17.80;56.00;;;;;;5023151;28;20049;-45
2023/10/05 08:54:09;;;;;;;8.50;2.20;;;17.80;55.70;;;;;;5024072;28;20057;-46
2023/10/05 08:56:40;;;;;;;11.07;2.97;;;17.80;55.90;;;;;;5022339;28;20056;-45
2023/10/05 08:59:13;;;;;;;11.60;2.80;;;17.90;56.00;;;;;;5023136;28;20045;-44
2023/10/05 09:01:43;;;;;;;12.80;2.67;;;17.90;55.90;;;;;;5022640;28;20413;-48
2023/10/05 09:04:11;;;;;;;7.80;2.50;;;18.00;56.00;;;;;;5023912;28;20053;-49
2023/10/05 09:06:48;;;;;;;8.50;2.25;;;18.00;56.00;;;;;;5023314;28;20065;-44
2023/10/05 09:09:17;;;;;;;9.00;2.67;;;18.00;55.70;;;;;;5024140;28;20057;-46
2023/10/05 09:11:44;;;;;;;13.27;2.78;;;18.10;55.60;;;;;;5023075;28;20064;-44
2023/10/05 09:14:20;;;;;;;13.10;3.20;;;18.10;55.70;;;;;;5023548;28;20053;-43
2023/10/05 09:16:55;;;;;;;7.28;1.95;;;18.10;55.40;;;;;;5018461;28;20064;-47
2023/10/05 09:19:26;;;;;;;15.77;2.47;;;18.20;55.40;;;;;;5021614;28;20489;-50
2023/10/05 09:22:10;;;;;;;12.50;2.60;;;18.20;55.40;;;;;;5020306;28;20064;-45
2023/10/05 09:24:42;;;;;;;8.07;2.42;;;18.30;55.60;;;;;;5018736;28;20493;-50
2023/10/05 09:27:14;;;;;;;10.07;2.42;;;18.30;55.60;;;;;;5019264;28;20053;-48
2023/10/05 09:29:42;;;;;;;7.80;1.92;;;18.40;55.60;;;;;;5022349;28;20053;-46
2023/10/05 09:32:22;;;;;;;7.93;2.25;;;18.40;55.30;;;;;;5018019;28;20061;-49
2023/10/05 09:34:50;;;;;;;8.25;2.30;;;18.50;55.20;;;;;;5015789;28;20523;-53
2023/10/05 09:37:19;;;;;;;11.38;2.22;;;18.50;55.10;;;;;;5023432;28;20543;-44
2023/10/05 09:39:49;;;;;;;10.45;2.78;;;18.50;54.70;;;;;;5020706;28;20052;-47
2023/10/05 09:42:22;;;;;;;7.70;2.00;;;18.60;54.70;;;;;;5021733;28;20412;-47
2023/10/05 09:44:51;;;;;;;13.27;2.50;;;18.60;54.50;;;;;;5019299;28;20060;-47
2023/10/05 09:47:26;;;;;;;7.57;2.45;;;18.70;54.70;;;;;;5016799;28;21641;-49
2023/10/05 09:49:55;;;;;;;10.15;2.60;;;18.70;54.50;;;;;;5017520;28;20644;-47
2023/10/05 09:52:29;;;;;;;14.20;2.50;;;18.70;54.60;;;;;;5019491;28;20057;-47
2023/10/05 09:54:57;;;;;;;;;;;18.80;54.40;;;;;;5018589;28;20068;-49
2023/10/05 09:57:26;;;;;;;14.00;2.78;;;18.80;54.60;;;;;;5019926;28;19928;-49
2023/10/05 10:00:08;;;;;;;13.23;2.83;;;18.90;54.40;;;;;;5018779;28;20052;-48
2023/10/05 10:02:40;;;;;;;15.65;2.45;;;18.90;54.30;;;;;;5016809;28;20049;-49
2023/10/05 10:05:26;;;;;;;8.90;2.45;;;18.90;54.20;;;;;;5019200;28;20050;-49
2023/10/05 10:07:55;;;;;;;6.65;2.35;;;18.90;54.20;;;;;;5020886;28;20060;-48
2023/10/05 10:10:25;;;;;;;8.07;2.03;;;18.90;54.10;;;;;;5019463;28;20053;-48
2023/10/05 10:12:53;;;;;;;10.85;2.45;;;19.00;54.20;;;;;;5017997;28;20061;-43
2023/10/05 10:15:28;;;;;;;10.07;2.42;;;19.00;54.10;;;;;;5018409;28;20049;-45
2023/10/05 10:18:14;;;;;;;14.93;2.65;;;19.00;53.90;;;;;;5015440;28;20731;-48
2023/10/05 10:20:47;;;;;;;11.10;2.85;;;19.00;53.70;;;;;;5018746;28;20124;-49
2023/10/05 10:23:22;;;;;;;12.52;2.47;;;19.00;53.90;;;;;;5017731;28;20445;-48
2023/10/05 10:25:51;;;;;;;10.43;2.10;;;19.10;53.70;;;;;;5016781;28;20065;-47
2023/10/05 10:28:39;;;;;;;8.45;2.15;;;19.10;53.70;;;;;;5015160;28;20433;-45
2023/10/05 10:31:17;;;;;;;9.85;1.95;;;19.10;53.40;;;;;;5017308;28;20119;-50
2023/10/05 10:33:51;;;;;;;10.52;2.30;;;19.10;53.30;;;;;;5017641;28;20054;-45
2023/10/05 10:36:23;;;;;;;8.43;1.92;;;19.20;53.30;;;;;;5015734;28;20052;-46
2023/10/05 10:38:52;;;;;;;8.90;2.47;;;19.20;52.90;;;;;;5015378;28;20481;-48
2023/10/05 10:41:22;;;;;;;7.80;2.08;;;19.20;52.70;;;;;;5019269;28;20062;-48
2023/10/05 10:43:53;;;;;;;6.93;2.00;;;19.30;52.90;;;;;;5019643;28;20091;-46
2023/10/05 10:46:28;;;;;;;10.93;2.38;;;19.30;52.90;;;;;;5018900;28;20401;-45
2023/10/05 10:49:00;;;;;;;7.80;2.20;;;19.30;52.90;;;;;;5016882;28;20409;-47
2023/10/05 10:51:31;;;;;;;7.20;2.10;;;19.30;52.60;;;;;;5015215;28;20115;-45
2023/10/05 10:54:08;;;;;;;8.50;2.42;;;19.40;52.80;;;;;;5020479;28;20061;-46
2023/10/05 10:56:42;;;;;;;8.18;1.83;;;19.40;52.80;;;;;;5019805;28;20144;-46
2023/10/05 10:59:11;;;;;;;6.25;2.17;;;19.40;52.30;;;;;;5018203;28;20061;-45
2023/10/05 11:01:43;;;;;;;9.13;1.88;;;19.40;51.80;;;;;;5018702;28;20432;-47
2023/10/05 11:04:25;;;;;;;9.75;2.40;;;19.40;51.70;;;;;;5018947;28;20509;-46
2023/10/05 11:06:54;;;;;;;8.82;2.22;;;19.40;51.80;;;;;;5019735;28;20064;-49
2023/10/05 11:09:30;;;;;;;9.38;2.55;;;19.40;52.10;;;;;;5020204;28;20060;-48
2023/10/05 11:12:08;;;;;;;13.45;2.40;;;19.30;52.20;;;;;;5019564;28;20413;-49
2023/10/05 11:14:37;;;;;;;9.60;2.15;;;19.40;52.20;;;;;;5020077;28;20057;-48
2023/10/05 11:17:11;;;;;;;12.85;3.05;;;19.40;51.80;;;;;;5019380;28;20053;-50
2023/10/05 11:19:42;;;;;;;15.88;2.90;;;19.40;52.10;;;;;;5020214;28;20053;-47
2023/10/05 11:22:12;;;;;;;10.65;1.90;;;19.40;52.30;;;;;;5020027;28;20061;-47
2023/10/05 11:25:14;;;;;;;8.05;2.15;;;19.40;51.90;;;;;;5019412;28;20061;-50
2023/10/05 11:27:44;;;;;;;7.63;2.10;;;19.40;51.70;;;;;;5019499;28;20494;-48
2023/10/05 11:30:18;;;;;;;6.38;1.80;;;19.40;51.60;;;;;;5016989;28;20049;-50
2023/10/05 11:32:47;;;;;;;5.18;1.90;;;19.40;51.50;;;;;;5018416;28;20045;-47
2023/10/05 11:35:16;;;;;;;5.80;1.92;;;19.40;50.80;;;;;;5017545;28;20068;-46
2023/10/05 11:37:59;;;;;;;10.60;2.03;;;19.40;51.00;;;;;;5019306;28;20061;-46
2023/10/05 11:40:31;;;;;;;5.65;1.90;;;19.40;51.20;;;;;;5020743;28;20061;-45
2023/10/05 11:43:04;;;;;;;8.57;2.53;;;19.40;51.20;;;;;;5019522;28;20057;-44
2023/10/05 11:45:33;;;;;;;6.15;2.00;;;19.40;50.80;;;;;;5017661;28;20061;-50
2023/10/05 11:48:11;;;;;;;12.88;2.50;;;19.40;50.60;;;;;;5019531;28;20056;-46
2023/10/05 11:50:51;;;;;;;7.72;2.28;;;19.50;50.70;;;;;;5018795;28;20049;-53
2023/10/05 11:53:20;;;;;;;6.75;1.92;;;19.50;50.50;;;;;;5018836;28;20412;-49
2023/10/05 11:55:49;;;;;;;8.20;2.65;;;19.50;50.40;;;;;;5019412;28;20477;-48
2023/10/05 11:58:18;;;;;;;7.38;2.38;;;19.50;50.20;;;;;;5020836;28;20401;-45
2023/10/05 12:00:46;;;;;;;6.05;2.00;;;19.50;50.50;;;;;;5018250;28;20048;-48
2023/10/05 12:03:16;;;;;;;9.25;2.72;;;19.60;50.70;;;;;;5021212;28;20038;-49
2023/10/05 12:05:44;;;;;;;6.53;2.20;;;19.60;50.70;;;;;;5019590;28;20053;-52
2023/10/05 12:08:12;;;;;;;8.07;2.58;;;19.60;50.90;;;;;;5020613;28;20580;-47
2023/10/05 12:10:41;;;;;;;12.05;2.35;;;19.60;50.70;;;;;;5023563;28;20703;-47
2023/10/05 12:13:09;;;;;;;12.77;2.88;;;19.70;50.40;;;;;;5021849;28;20076;-47
2023/10/05 12:15:37;;;;;;;12.70;2.55;;;19.70;50.50;;;;;;5023780;28;20057;-51
2023/10/05 12:18:12;;;;;;;10.63;2.13;;;19.70;50.80;;;;;;5023114;28;20061;-47
2023/10/05 12:20:42;;;;;;;7.60;2.03;;;19.70;50.40;;;;;;5018906;28;20049;-53
2023/10/05 12:23:14;;;;;;;14.02;2.10;;;19.70;50.50;;;;;;5022856;28;20061;-50
2023/10/05 12:25:42;;;;;;;8.43;2.17;;;19.70;49.70;;;;;;5023883;28;20500;-51
2023/10/05 12:28:11;;;;;;;8.77;2.10;;;19.80;49.90;;;;;;5023690;28;20065;-51
2023/10/05 12:30:41;;;;;;;7.10;2.13;;;19.80;49.80;;;;;;5022558;28;20057;-50
2023/10/05 12:33:09;;;;;;;5.75;2.10;;;19.80;50.00;;;;;;5020398;28;20061;-50
2023/10/05 12:35:38;;;;;;;8.70;1.98;;;19.80;49.80;;;;;;5021748;28;20061;-48
2023/10/05 12:38:08;;;;;;;9.50;2.33;;;19.80;49.80;;;;;;5021929;28;20045;-48
2023/10/05 12:40:40;;;;;;;13.40;2.53;;;19.80;49.40;;;;;;5022304;28;20049;-49
2023/10/05 12:43:09;;;;;;;11.27;2.13;;;19.80;49.80;;;;;;5022591;28;20054;-49
2023/10/05 12:45:36;;;;;;;8.02;2.35;;;19.80;49.60;;;;;;5021805;28;20084;-47
2023/10/05 12:48:04;;;;;;;6.82;2.05;;;19.80;49.50;;;;;;5021158;28;20520;-48
2023/10/05 12:50:31;;;;;;;7.43;2.42;;;19.80;49.80;;;;;;5023097;28;20045;-47
2023/10/05 12:52:59;;;;;;;9.25;2.58;;;19.90;49.10;;;;;;5020648;28;20060;-49
2023/10/05 12:55:28;;;;;;;12.25;2.45;;;19.80;48.40;;;;;;5023643;28;20053;-45
2023/10/05 12:57:57;;;;;;;13.13;2.65;;;19.80;48.60;;;;;;5023250;28;20057;-49
2023/10/05 13:00:28;;;;;;;4.90;1.77;;;19.90;49.00;;;;;;5020823;28;20045;-50
2023/10/05 13:02:56;;;;;;;8.45;2.78;;;19.90;49.50;;;;;;5019762;28;20057;-48